Time;durP1;ratioP1;P1;durP2;ratioP2;P2;SDS_P1;SDS_P2;PMS_P1;PMS_P2;Temp;Humidity;BMP_temperature;BMP_pressure;BME280_temperature;BME280_humidity;BME280_pressure;Samples;Min_cycle;Max_cycle;Signal;HPM_P1;HPM_P2
2021/01/07 00:02:14;;;;;;;20.88;10.57;;;;;;;1.10;82.79;101099.50;5048259;28;20045;-69
2021/01/07 00:04:39;;;;;;;19.38;10.27;;;;;;;1.08;83.00;101089.22;5049027;28;20056;-70
2021/01/07 00:07:06;;;;;;;21.58;10.18;;;;;;;0.98;83.30;101088.91;5048226;28;20471;-72
2021/01/07 00:09:32;;;;;;;21.67;10.70;;;;;;;0.87;83.72;101086.94;5042457;28;20057;-69
2021/01/07 00:11:58;;;;;;;20.58;9.82;;;;;;;0.86;83.68;101081.78;5043534;28;20057;-69
2021/01/07 00:14:24;;;;;;;21.52;10.25;;;;;;;0.91;83.69;101080.22;5049063;28;20496;-71
2021/01/07 00:16:50;;;;;;;20.48;9.93;;;;;;;0.95;83.58;101083.75;5045999;28;20416;-71
2021/01/07 00:19:16;;;;;;;19.27;9.73;;;;;;;1.02;82.82;101083.91;5046961;28;20468;-72
2021/01/07 00:21:42;;;;;;;16.70;9.35;;;;;;;0.93;83.26;101083.69;5042776;28;20186;-69
2021/01/07 00:24:09;;;;;;;21.88;11.02;;;;;;;0.93;83.19;101078.56;5043726;28;20041;-69
2021/01/07 00:26:35;;;;;;;17.35;9.13;;;;;;;0.86;83.79;101080.09;5050168;28;20075;-69
2021/01/07 00:29:01;;;;;;;19.63;8.98;;;;;;;0.82;84.11;101073.16;5045848;28;20057;-71
2021/01/07 00:31:27;;;;;;;16.65;9.55;;;;;;;0.88;83.69;101073.31;5044547;28;20045;-70
2021/01/07 00:33:53;;;;;;;14.90;8.75;;;;;;;0.96;83.78;101072.63;5047792;28;20471;-69
2021/01/07 00:36:20;;;;;;;19.67;8.57;;;;;;;0.97;83.22;101064.13;5042523;28;20071;-69
2021/01/07 00:38:46;;;;;;;17.30;8.65;;;;;;;0.98;83.39;101068.44;5047484;28;20053;-69
2021/01/07 00:41:16;;;;;;;17.83;9.30;;;;;;;1.06;83.07;101070.38;5041676;28;20052;-69
2021/01/07 00:43:42;;;;;;;17.45;8.98;;;;;;;1.02;83.27;101068.53;5047537;28;20041;-70
2021/01/07 00:46:08;;;;;;;17.73;8.73;;;;;;;1.07;82.86;101073.78;5041767;28;20413;-69
2021/01/07 00:48:34;;;;;;;17.08;8.52;;;;;;;1.05;82.81;101070.31;5049483;28;20623;-70
2021/01/07 00:51:00;;;;;;;18.17;9.57;;;;;;;1.06;83.12;101062.69;5044127;28;20091;-70
2021/01/07 00:53:26;;;;;;;18.67;9.18;;;;;;;1.10;82.93;101063.63;5049045;28;20049;-71
2021/01/07 00:55:52;;;;;;;16.33;9.30;;;;;;;1.04;83.03;101063.47;5046260;28;20075;-69
2021/01/07 00:58:19;;;;;;;16.90;9.13;;;;;;;1.03;83.16;101061.75;5047838;28;20048;-68
2021/01/07 01:00:45;;;;;;;17.83;9.70;;;;;;;0.95;83.42;101060.69;5046095;28;20052;-71
2021/01/07 01:03:11;;;;;;;20.25;10.07;;;;;;;0.97;83.91;101056.44;5040646;28;20128;-69
2021/01/07 01:05:37;;;;;;;17.17;9.30;;;;;;;0.93;83.80;101061.50;5047159;28;20120;-68
2021/01/07 01:08:03;;;;;;;17.05;8.88;;;;;;;0.98;83.64;101056.50;5044067;28;20055;-69
2021/01/07 01:10:29;;;;;;;17.40;9.82;;;;;;;1.00;84.02;101059.09;5043982;28;20653;-67
2021/01/07 01:12:55;;;;;;;22.75;10.50;;;;;;;1.01;83.84;101058.28;5040709;28;20053;-69
2021/01/07 01:15:22;;;;;;;25.15;10.75;;;;;;;0.95;83.83;101053.84;5042839;28;20045;-69
2021/01/07 01:17:48;;;;;;;19.73;8.95;;;;;;;0.95;84.09;101053.84;5043813;28;20128;-71
2021/01/07 01:20:14;;;;;;;20.45;10.00;;;;;;;1.00;83.90;101059.09;5049207;28;20584;-71
2021/01/07 01:22:43;;;;;;;17.58;9.40;;;;;;;0.99;83.42;101052.22;5040257;28;20045;-70
2021/01/07 01:25:11;;;;;;;19.45;10.30;;;;;;;0.96;84.33;101049.59;5037778;28;20045;-69
2021/01/07 01:27:38;;;;;;;22.67;11.15;;;;;;;0.98;84.14;101050.50;5038064;28;20780;-70
2021/01/07 01:30:05;;;;;;;19.33;10.00;;;;;;;0.97;84.14;101046.19;5047195;28;20040;-68
2021/01/07 01:32:32;;;;;;;19.80;10.60;;;;;;;1.00;84.10;101052.25;5045401;28;20045;-69
2021/01/07 01:34:58;;;;;;;19.58;9.95;;;;;;;1.04;84.11;101060.91;5039811;28;20053;-70
2021/01/07 01:37:24;;;;;;;28.90;10.13;;;;;;;1.05;84.32;101057.50;5041093;28;20076;-68
2021/01/07 01:39:49;;;;;;;21.73;9.90;;;;;;;1.08;84.28;101049.91;5049816;28;20072;-70
2021/01/07 01:42:15;;;;;;;18.33;9.93;;;;;;;1.09;83.71;101056.75;5045378;28;20079;-70
2021/01/07 01:44:41;;;;;;;19.33;10.02;;;;;;;1.04;84.19;101048.09;5041885;28;20050;-68
2021/01/07 01:47:07;;;;;;;19.92;11.40;;;;;;;1.03;84.18;101049.78;5041942;28;20045;-71
2021/01/07 01:49:34;;;;;;;22.42;12.15;;;;;;;1.11;84.19;101056.78;5054946;28;20075;-68
2021/01/07 01:52:00;;;;;;;21.65;10.38;;;;;;;1.05;84.09;101050.69;5055068;28;20500;-71
2021/01/07 01:54:26;;;;;;;18.73;10.10;;;;;;;1.11;83.95;101044.88;5047983;28;20050;-72
2021/01/07 01:56:54;;;;;;;17.13;9.48;;;;;;;1.15;83.81;101051.78;5042909;28;20086;-68
2021/01/07 01:59:21;;;;;;;18.15;10.10;;;;;;;1.16;83.64;101047.53;5047932;28;20045;-68
2021/01/07 02:01:47;;;;;;;20.27;10.50;;;;;;;1.17;83.55;101047.56;5047589;28;20124;-69
2021/01/07 02:04:13;;;;;;;18.83;10.32;;;;;;;1.18;83.46;101049.31;5046788;28;20080;-70
2021/01/07 02:06:42;;;;;;;19.10;10.30;;;;;;;1.11;83.94;101049.97;5046944;28;20413;-70
2021/01/07 02:09:08;;;;;;;17.50;9.48;;;;;;;1.16;83.99;101057.78;5047471;28;20083;-69
2021/01/07 02:11:35;;;;;;;23.65;11.27;;;;;;;1.18;83.80;101056.97;5040247;28;20044;-68
2021/01/07 02:14:01;;;;;;;21.60;10.85;;;;;;;1.19;83.69;101057.88;5044057;28;20045;-69
2021/01/07 02:16:27;;;;;;;19.17;10.32;;;;;;;1.18;83.56;101049.31;5045160;28;20048;-68
2021/01/07 02:18:55;;;;;;;20.38;10.85;;;;;;;1.17;83.88;101059.53;5049971;28;20459;-68
2021/01/07 02:21:21;;;;;;;19.75;9.93;;;;;;;1.17;83.82;101056.97;5043897;28;20049;-69
2021/01/07 02:23:49;;;;;;;21.45;11.10;;;;;;;1.17;83.60;101052.69;5041760;28;20455;-69
2021/01/07 02:26:15;;;;;;;18.55;10.40;;;;;;;1.16;83.85;101048.38;5041433;28;20049;-70
2021/01/07 02:28:42;;;;;;;23.40;10.10;;;;;;;1.15;84.12;101051.78;5047789;28;20064;-69
2021/01/07 02:31:08;;;;;;;19.42;10.52;;;;;;;1.16;84.35;101053.50;5042988;28;20053;-69
2021/01/07 02:33:34;;;;;;;16.63;10.07;;;;;;;1.16;84.25;101056.06;5044298;28;20496;-68
2021/01/07 02:36:00;;;;;;;18.30;10.93;;;;;;;1.15;84.29;101061.16;5050335;28;20075;-69
2021/01/07 02:38:26;;;;;;;21.42;10.60;;;;;;;1.14;84.57;101051.75;5053864;28;20076;-69
2021/01/07 02:40:52;;;;;;;19.02;10.18;;;;;;;1.20;84.12;101050.22;5042663;28;20511;-68
2021/01/07 02:43:18;;;;;;;23.50;10.80;;;;;;;1.18;84.37;101046.72;5042771;28;20045;-69
2021/01/07 02:45:44;;;;;;;21.00;9.90;;;;;;;1.16;84.19;101047.53;5041001;28;20044;-69
2021/01/07 02:48:10;;;;;;;17.30;9.77;;;;;;;1.17;84.45;101046.72;5051662;28;20064;-69
2021/01/07 02:50:36;;;;;;;21.08;10.63;;;;;;;1.18;84.56;101049.31;5056513;28;20071;-70
2021/01/07 02:53:02;;;;;;;19.15;9.98;;;;;;;1.16;84.09;101045.81;5044519;28;20485;-69
2021/01/07 02:55:29;;;;;;;21.48;11.48;;;;;;;1.18;84.35;101049.31;5044472;28;20432;-68
2021/01/07 02:57:55;;;;;;;22.15;11.05;;;;;;;1.17;84.26;101045.00;5040845;28;20045;-69
2021/01/07 03:00:21;;;;;;;19.23;10.60;;;;;;;1.19;83.95;101047.63;5044816;28;20048;-69
2021/01/07 03:02:47;;;;;;;17.10;10.15;;;;;;;1.18;84.25;101040.75;5041638;28;20457;-73
2021/01/07 03:05:13;;;;;;;21.40;11.15;;;;;;;1.12;84.20;101044.03;5043068;28;20128;-70
2021/01/07 03:07:39;;;;;;;18.42;10.15;;;;;;;1.18;84.79;101044.19;5050083;28;20057;-73
2021/01/07 03:10:06;;;;;;;18.17;10.93;;;;;;;1.20;84.43;101037.41;5046299;28;20626;-68
2021/01/07 03:12:33;;;;;;;19.65;11.10;;;;;;;1.22;84.48;101037.41;5054411;28;20040;-68
2021/01/07 03:14:59;;;;;;;19.08;10.95;;;;;;;1.17;84.54;101037.31;5062291;28;20045;-69
2021/01/07 03:17:25;;;;;;;22.23;11.80;;;;;;;1.20;84.74;101037.41;5049666;28;20074;-69
2021/01/07 03:19:50;;;;;;;20.13;10.40;;;;;;;1.24;84.75;101034.09;5042112;28;20045;-71
2021/01/07 03:22:16;;;;;;;22.60;11.63;;;;;;;1.26;84.64;101033.22;5043972;28;20080;-69
2021/01/07 03:24:42;;;;;;;22.67;11.88;;;;;;;1.29;84.44;101029.06;5047548;28;20136;-70
2021/01/07 03:27:08;;;;;;;21.38;11.63;;;;;;;1.30;84.40;101027.38;5041964;28;20504;-69
2021/01/07 03:29:35;;;;;;;17.33;10.02;;;;;;;1.28;84.05;101018.78;5051709;28;20068;-69
2021/01/07 03:32:01;;;;;;;21.65;10.55;;;;;;;1.30;84.01;101025.66;5042440;28;20041;-68
2021/01/07 03:34:27;;;;;;;18.15;10.77;;;;;;;1.28;84.31;101023.91;5049463;28;20049;-68
2021/01/07 03:36:53;;;;;;;21.40;10.65;;;;;;;1.29;84.28;101020.50;5042570;28;20065;-69
2021/01/07 03:39:19;;;;;;;26.52;12.20;;;;;;;1.30;84.53;101015.41;5046961;28;20159;-69
2021/01/07 03:41:45;;;;;;;28.33;11.23;;;;;;;1.31;84.64;101012.00;5041129;28;20516;-70
2021/01/07 03:44:12;;;;;;;20.85;11.40;;;;;;;1.27;84.33;101006.78;5048887;28;20037;-69
2021/01/07 03:46:39;;;;;;;21.00;11.68;;;;;;;1.27;84.53;101011.91;5038124;28;20045;-70
2021/01/07 03:49:05;;;;;;;24.02;11.85;;;;;;;1.31;84.31;101001.75;5054122;28;20048;-68
2021/01/07 03:51:31;;;;;;;24.70;12.25;;;;;;;1.30;84.68;101006.88;5051070;28;20044;-68
2021/01/07 03:53:57;;;;;;;19.52;10.13;;;;;;;1.31;84.53;100999.19;5047892;28;20056;-68
2021/01/07 03:56:23;;;;;;;23.92;11.38;;;;;;;1.30;84.69;101004.31;5045533;28;20053;-68
2021/01/07 03:58:49;;;;;;;20.33;12.05;;;;;;;1.24;84.35;101005.03;5049448;28;20076;-70
2021/01/07 04:01:15;;;;;;;19.13;10.93;;;;;;;1.27;84.72;100999.97;5042295;28;20055;-70
2021/01/07 04:03:42;;;;;;;18.20;10.25;;;;;;;1.24;84.91;101003.34;5048385;28;20048;-69
2021/01/07 04:06:08;;;;;;;20.73;11.10;;;;;;;1.30;84.40;100994.03;5050854;28;20071;-68
2021/01/07 04:08:34;;;;;;;22.58;10.93;;;;;;;1.31;84.68;100998.34;5046060;28;20048;-69
2021/01/07 04:11:00;;;;;;;18.75;10.68;;;;;;;1.31;84.25;100999.19;5044081;28;20045;-68
2021/01/07 04:13:26;;;;;;;19.55;12.40;;;;;;;1.29;83.95;101002.56;5051184;28;20124;-69
2021/01/07 04:15:52;;;;;;;24.10;11.73;;;;;;;1.28;84.87;101005.94;5046586;28;20045;-70
2021/01/07 04:18:18;;;;;;;22.48;12.07;;;;;;;1.26;84.88;100997.34;5045528;28;20041;-69
2021/01/07 04:20:45;;;;;;;23.10;11.38;;;;;;;1.30;84.70;100987.22;5052001;28;20099;-71
2021/01/07 04:23:11;;;;;;;21.75;10.23;;;;;;;1.33;84.54;100989.84;5048714;28;20041;-69
2021/01/07 04:25:36;;;;;;;20.90;11.77;;;;;;;1.31;84.60;100993.22;5040727;28;20044;-69
2021/01/07 04:28:03;;;;;;;22.45;11.73;;;;;;;1.24;84.63;100997.34;5038777;28;20042;-69
2021/01/07 04:30:29;;;;;;;19.00;11.10;;;;;;;1.24;84.91;100998.22;5047883;28;20500;-70
2021/01/07 04:32:55;;;;;;;21.27;11.65;;;;;;;1.28;84.91;100998.25;5041830;28;20041;-71
2021/01/07 04:35:21;;;;;;;18.58;11.40;;;;;;;1.26;84.83;100987.09;5044549;28;20072;-70
2021/01/07 04:37:47;;;;;;;22.73;12.23;;;;;;;1.29;85.04;100987.19;5047588;28;20041;-69
2021/01/07 04:40:15;;;;;;;24.75;13.27;;;;;;;1.27;84.94;100979.47;5047612;28;20064;-70
2021/01/07 04:42:41;;;;;;;21.42;12.27;;;;;;;1.31;85.33;100980.41;5040658;28;20397;-69
2021/01/07 04:45:08;;;;;;;20.83;12.18;;;;;;;1.30;85.40;100978.66;5039574;28;20045;-72
2021/01/07 04:47:36;;;;;;;23.25;13.23;;;;;;;1.37;84.99;100981.41;5042887;28;20044;-70
2021/01/07 04:50:02;;;;;;;21.55;11.85;;;;;;;1.33;85.47;100973.63;5045728;28;20082;-70
2021/01/07 04:52:28;;;;;;;20.00;12.55;;;;;;;1.36;85.26;100976.22;5046572;28;20102;-71
2021/01/07 04:54:55;;;;;;;23.52;11.95;;;;;;;1.38;85.52;100977.16;5035828;28;20057;-70
2021/01/07 04:57:21;;;;;;;23.17;13.38;;;;;;;1.42;85.08;100971.25;5043831;28;20045;-69
2021/01/07 04:59:47;;;;;;;21.92;12.63;;;;;;;1.42;85.36;100967.81;5038630;28;20049;-68
2021/01/07 05:02:14;;;;;;;23.30;12.95;;;;;;;1.32;85.17;100966.75;5041118;28;20057;-69
2021/01/07 05:04:49;;;;;;;25.50;13.20;;;;;;;1.34;84.92;100970.25;5038076;28;20060;-70
2021/01/07 05:07:18;;;;;;;23.42;13.00;;;;;;;1.28;85.08;100968.41;5043758;28;20511;-73
2021/01/07 05:09:45;;;;;;;20.85;13.02;;;;;;;1.22;85.71;100971.69;5045909;28;20119;-69
2021/01/07 05:12:13;;;;;;;26.23;14.05;;;;;;;1.27;85.54;100966.66;5046552;28;20041;-69
2021/01/07 05:14:47;;;;;;;23.05;12.18;;;;;;;1.28;85.35;100963.28;5040801;28;20044;-70
2021/01/07 05:17:14;;;;;;;;;;;;;;;1.23;85.52;100968.28;5044723;28;20045;-71
2021/01/07 05:19:40;;;;;;;27.20;14.00;;;;;;;1.28;85.42;100962.38;5043122;28;19920;-71
2021/01/07 05:22:06;;;;;;;26.77;13.70;;;;;;;1.28;85.37;100958.16;5045256;28;20056;-69
2021/01/07 05:24:33;;;;;;;29.33;13.30;;;;;;;1.30;85.40;100958.16;5043024;28;20146;-69
2021/01/07 05:27:05;;;;;;;24.55;13.60;;;;;;;1.26;85.52;100954.69;5045518;28;20049;-71
2021/01/07 05:29:32;;;;;;;26.40;14.02;;;;;;;1.30;85.29;100953.03;5042491;28;20041;-69
2021/01/07 05:31:58;;;;;;;24.27;14.07;;;;;;;1.28;85.13;100954.69;5057551;22;20057;-67
2021/01/07 05:34:24;;;;;;;23.27;13.20;;;;;;;1.31;85.81;100949.66;5013745;28;20057;-66
2021/01/07 05:36:56;;;;;;;23.65;13.82;;;;;;;1.30;85.94;100953.91;5021925;28;20046;-67
2021/01/07 05:39:22;;;;;;;28.92;15.05;;;;;;;1.30;86.15;100948.78;5024167;28;20046;-64
2021/01/07 05:41:52;;;;;;;26.98;14.93;;;;;;;1.33;85.87;100948.84;5021778;28;20046;-67
2021/01/07 05:44:22;;;;;;;24.75;13.38;;;;;;;1.31;85.76;100950.50;5002527;28;20047;-65
2021/01/07 05:46:49;;;;;;;29.17;13.82;;;;;;;1.30;86.27;100948.78;5011546;28;20504;-65
2021/01/07 05:49:19;;;;;;;26.95;14.82;;;;;;;1.32;85.91;100943.69;5012318;28;20050;-65
2021/01/07 05:51:47;;;;;;;24.40;14.25;;;;;;;1.35;85.91;100947.19;5023460;28;20451;-65
2021/01/07 05:54:13;;;;;;;22.40;14.23;;;;;;;1.33;85.75;100942.88;5010066;28;20055;-66
2021/01/07 05:56:40;;;;;;;27.00;15.02;;;;;;;1.28;86.11;100947.00;5020346;28;20056;-65
2021/01/07 05:59:08;;;;;;;23.95;14.10;;;;;;;1.26;86.14;100954.69;5016120;28;20049;-65
2021/01/07 06:01:35;;;;;;;26.08;13.88;;;;;;;1.17;85.79;100950.19;5004458;28;20037;-65
2021/01/07 06:04:04;;;;;;;26.58;13.43;;;;;;;1.12;85.85;100949.25;5009033;28;20052;-66
2021/01/07 06:06:31;;;;;;;26.17;13.90;;;;;;;1.10;86.73;100943.22;5010262;28;20126;-65
2021/01/07 06:08:57;;;;;;;23.50;12.45;;;;;;;1.14;86.68;100947.59;5018476;28;20536;-67
2021/01/07 06:11:25;;;;;;;23.15;12.75;;;;;;;1.07;86.34;100945.69;5018042;28;20050;-65
2021/01/07 06:13:53;;;;;;;22.77;13.23;;;;;;;1.06;86.81;100949.09;5007566;28;20140;-66
2021/01/07 06:16:20;;;;;;;20.85;12.60;;;;;;;1.11;86.19;100949.19;5007740;28;20402;-64
2021/01/07 06:18:47;;;;;;;26.25;13.73;;;;;;;1.08;86.54;100952.56;5021071;28;20045;-65
2021/01/07 06:21:14;;;;;;;22.02;13.10;;;;;;;1.12;86.63;100954.38;5017373;28;20048;-66
2021/01/07 06:23:42;;;;;;;21.95;12.90;;;;;;;1.16;86.07;100952.75;5014854;28;20050;-65
2021/01/07 06:26:18;;;;;;;23.08;13.48;;;;;;;1.16;86.33;100956.16;5012354;28;20869;-68
2021/01/07 06:28:45;;;;;;;24.20;13.27;;;;;;;1.07;86.78;100955.94;5012389;28;20037;-68
2021/01/07 06:31:14;;;;;;;22.17;12.57;;;;;;;1.11;86.30;100956.88;5009269;28;20050;-66
2021/01/07 06:33:40;;;;;;;17.73;10.07;;;;;;;1.13;85.94;100955.22;5039618;28;20151;-67
2021/01/07 06:36:07;;;;;;;17.98;8.90;;;;;;;1.01;85.99;100960.94;5028675;28;20049;-65
2021/01/07 06:38:34;;;;;;;24.77;10.95;;;;;;;1.03;85.84;100960.13;5027045;28;20045;-66
2021/01/07 06:41:01;;;;;;;17.75;10.32;;;;;;;1.05;85.61;100960.16;5034143;28;20045;-67
2021/01/07 06:43:29;;;;;;;17.70;10.48;;;;;;;1.05;85.38;100963.59;5038014;28;20512;-66
2021/01/07 06:45:56;;;;;;;20.10;10.38;;;;;;;1.05;85.90;100957.59;5029678;28;20612;-66
2021/01/07 06:48:30;;;;;;;21.08;11.77;;;;;;;0.99;86.31;100957.47;5028932;28;20045;-65
2021/01/07 06:50:58;;;;;;;18.38;11.27;;;;;;;1.01;86.48;100955.81;5034668;28;20129;-66
2021/01/07 06:53:25;;;;;;;15.80;9.02;;;;;;;1.05;85.87;100953.34;5033569;28;20596;-67
2021/01/07 06:56:13;;;;;;;19.55;10.75;;;;;;;1.07;86.41;100946.59;5021577;28;20042;-66
2021/01/07 06:58:40;;;;;;;19.17;10.20;;;;;;;1.11;86.02;100941.50;5019555;28;20077;-67
2021/01/07 07:01:08;;;;;;;17.38;9.65;;;;;;;1.13;85.55;100945.84;5032242;28;20046;-67
2021/01/07 07:03:44;;;;;;;19.15;9.98;;;;;;;1.15;85.74;100945.88;5025741;28;20041;-67
2021/01/07 07:06:15;;;;;;;17.42;9.88;;;;;;;1.15;85.61;100939.03;5023987;28;20045;-67
2021/01/07 07:08:45;;;;;;;20.58;9.57;;;;;;;1.16;85.58;100945.91;5035811;28;20041;-66
2021/01/07 07:11:27;;;;;;;16.63;9.45;;;;;;;1.22;85.61;100946.06;5023980;28;20136;-66
2021/01/07 07:13:57;;;;;;;15.60;8.93;;;;;;;1.20;85.80;100936.59;5030075;28;20049;-68
2021/01/07 07:16:24;;;;;;;20.08;10.35;;;;;;;1.18;86.02;100948.53;5030339;28;20481;-69
2021/01/07 07:18:55;;;;;;;19.30;10.38;;;;;;;1.25;85.82;100940.13;5025554;28;20045;-68
2021/01/07 07:21:24;;;;;;;19.15;10.20;;;;;;;1.24;85.48;100952.09;5032081;28;20628;-68
2021/01/07 07:23:51;;;;;;;18.95;10.63;;;;;;;1.28;85.34;100950.47;5034524;28;20485;-68
2021/01/07 07:26:32;;;;;;;18.17;10.40;;;;;;;1.23;85.67;100954.59;5032826;28;20059;-69
2021/01/07 07:29:03;;;;;;;20.73;11.32;;;;;;;1.24;85.25;100958.91;5031196;28;20400;-69
2021/01/07 07:31:39;;;;;;;20.63;11.68;;;;;;;1.22;85.86;100950.31;5020456;28;20083;-69
2021/01/07 07:34:06;;;;;;;22.10;12.65;;;;;;;1.23;85.96;100960.59;5027386;28;20037;-68
2021/01/07 07:36:33;;;;;;;19.77;11.10;;;;;;;1.26;85.90;100958.91;5025462;28;20139;-69
2021/01/07 07:38:59;;;;;;;22.05;10.93;;;;;;;1.30;85.77;100958.16;5035779;28;20052;-68
2021/01/07 07:41:27;;;;;;;20.40;11.73;;;;;;;1.30;85.56;100958.16;5038870;28;20053;-67
2021/01/07 07:43:55;;;;;;;26.35;12.40;;;;;;;1.34;85.65;100967.66;5030360;28;20045;-67
2021/01/07 07:46:24;;;;;;;22.13;12.52;;;;;;;1.33;85.74;100963.38;5027861;28;20056;-67
2021/01/07 07:48:57;;;;;;;24.35;12.32;;;;;;;1.35;85.64;100964.25;5024800;28;20053;-68
2021/01/07 07:51:24;;;;;;;23.30;13.43;;;;;;;1.35;85.23;100962.56;5020476;28;20231;-69
2021/01/07 07:53:50;;;;;;;27.30;13.88;;;;;;;1.29;86.28;100966.69;5024169;28;20042;-68
2021/01/07 07:56:23;;;;;;;26.30;14.18;;;;;;;1.31;85.25;100971.00;5029376;28;20048;-68
2021/01/07 07:58:58;;;;;;;24.35;14.10;;;;;;;1.35;85.96;100966.81;5028122;28;20539;-68
2021/01/07 08:01:33;;;;;;;;;;;;;;;1.40;85.90;100970.38;5031183;28;20049;-68
2021/01/07 08:04:00;;;;;;;25.55;13.23;;;;;;;1.46;85.70;100975.63;5027020;28;20305;-68
2021/01/07 08:06:26;;;;;;;25.75;13.00;;;;;;;1.48;85.34;100971.38;5035065;28;20092;-68
2021/01/07 08:09:01;;;;;;;27.60;14.55;;;;;;;1.48;85.39;100973.94;5031699;28;20042;-68
2021/01/07 08:11:29;;;;;;;24.42;13.07;;;;;;;1.47;85.63;100977.34;5028701;28;20127;-68
2021/01/07 08:13:55;;;;;;;28.48;13.90;;;;;;;1.47;85.48;100977.34;5033539;28;20080;-69
2021/01/07 08:16:24;;;;;;;25.55;13.52;;;;;;;1.51;85.63;100978.28;5025794;28;20045;-67
2021/01/07 08:18:50;;;;;;;21.45;12.93;;;;;;;1.52;85.52;100983.47;5037045;28;20405;-68
2021/01/07 08:21:16;;;;;;;23.92;13.13;;;;;;;1.53;85.71;100976.63;5027665;28;20125;-66
2021/01/07 08:23:42;;;;;;;23.48;12.82;;;;;;;1.50;85.61;100982.56;5031366;28;20049;-68
2021/01/07 08:26:12;;;;;;;26.45;13.80;;;;;;;1.53;85.47;100980.06;5026055;28;20049;-68
2021/01/07 08:28:43;;;;;;;25.63;13.40;;;;;;;1.56;85.79;100989.50;5027885;28;20508;-68
2021/01/07 08:31:12;;;;;;;33.60;14.70;;;;;;;1.60;85.59;100983.59;5018227;28;20057;-69
2021/01/07 08:33:39;;;;;;;23.15;13.02;;;;;;;1.63;85.44;100987.94;5027422;28;20100;-69
2021/01/07 08:36:08;;;;;;;21.70;12.65;;;;;;;1.70;85.68;100987.25;5028489;28;20516;-69
2021/01/07 08:38:35;;;;;;;22.25;12.80;;;;;;;1.70;84.67;100974.41;5029307;28;20053;-69
2021/01/07 08:41:11;;;;;;;22.23;12.30;;;;;;;1.74;84.74;100981.34;5031374;28;20049;-69
2021/01/07 08:43:37;;;;;;;23.33;13.88;;;;;;;1.73;83.75;100978.75;5038510;28;20481;-69
2021/01/07 08:46:11;;;;;;;22.42;12.73;;;;;;;1.59;84.64;100981.91;5029124;28;20054;-68
2021/01/07 08:48:38;;;;;;;21.95;13.43;;;;;;;1.52;85.08;100983.47;5028406;28;20053;-69
2021/01/07 08:51:16;;;;;;;25.85;14.00;;;;;;;1.47;85.54;100986.75;5027553;28;20049;-69
2021/01/07 08:53:47;;;;;;;23.92;13.85;;;;;;;1.54;85.99;100978.34;5017278;28;20080;-69
2021/01/07 08:56:28;;;;;;;21.65;12.57;;;;;;;1.60;85.17;100977.63;5025159;28;20045;-69
2021/01/07 08:59:15;;;;;;;21.60;13.38;;;;;;;1.60;85.37;100980.19;5013782;28;20522;-69
2021/01/07 09:01:41;;;;;;;22.02;13.77;;;;;;;1.64;84.85;100984.56;5023575;28;20041;-68
2021/01/07 09:04:25;;;;;;;23.10;13.90;;;;;;;1.65;85.61;100982.00;5034821;28;20637;-68
2021/01/07 09:07:01;;;;;;;23.90;14.60;;;;;;;1.71;85.02;100983.84;5027453;28;20044;-69
2021/01/07 09:09:38;;;;;;;22.52;13.88;;;;;;;1.66;85.37;100977.75;5024155;28;20073;-69
2021/01/07 09:12:11;;;;;;;23.73;14.40;;;;;;;1.66;84.94;100976.06;5021758;28;20041;-69
2021/01/07 09:15:00;;;;;;;24.08;14.57;;;;;;;1.65;85.30;100981.13;5026894;28;20062;-69
2021/01/07 09:17:38;;;;;;;22.25;13.90;;;;;;;1.69;85.54;100973.56;5019338;28;20076;-69
2021/01/07 09:20:07;;;;;;;25.10;14.45;;;;;;;1.68;85.59;100984.66;5027967;28;20069;-68
2021/01/07 09:22:33;;;;;;;22.50;14.10;;;;;;;1.73;85.38;100979.63;5027435;28;20041;-71
2021/01/07 09:25:00;;;;;;;19.45;12.88;;;;;;;1.72;85.30;100972.75;5025556;28;20037;-68
2021/01/07 09:27:26;;;;;;;21.92;13.55;;;;;;;1.68;85.20;100979.53;5015555;28;20045;-69
2021/01/07 09:29:52;;;;;;;25.05;14.25;;;;;;;1.71;84.90;100982.13;5020901;28;20059;-68
2021/01/07 09:32:18;;;;;;;20.63;13.35;;;;;;;1.73;85.19;100971.94;5019399;28;20161;-68
2021/01/07 09:34:45;;;;;;;21.48;13.32;;;;;;;1.66;85.45;100977.75;5014680;28;20060;-67
2021/01/07 09:37:16;;;;;;;19.45;12.15;;;;;;;1.79;85.65;100968.63;5019354;28;20045;-67
2021/01/07 09:39:44;;;;;;;23.27;13.18;;;;;;;1.76;85.02;100969.41;5024453;28;20436;-67
2021/01/07 09:42:10;;;;;;;18.50;12.38;;;;;;;1.80;85.50;100975.47;5028052;28;20045;-66
2021/01/07 09:44:37;;;;;;;19.40;10.65;;;;;;;1.86;85.54;100973.88;5032055;28;20099;-66
2021/01/07 09:47:05;;;;;;;18.33;11.60;;;;;;;1.88;85.29;100979.06;5031511;28;20041;-66
2021/01/07 09:49:31;;;;;;;19.48;12.05;;;;;;;1.90;85.40;100977.38;5035118;28;20041;-66
2021/01/07 09:51:58;;;;;;;19.67;10.68;;;;;;;2.02;85.22;100974.22;5024827;28;20136;-67
2021/01/07 09:54:25;;;;;;;16.42;10.23;;;;;;;2.01;85.52;100964.78;5015236;28;20414;-67
2021/01/07 09:56:52;;;;;;;16.77;10.43;;;;;;;2.11;84.68;100969.25;5015184;28;20053;-67
2021/01/07 09:59:19;;;;;;;16.55;10.73;;;;;;;2.13;84.42;100957.34;5035966;28;20124;-65
2021/01/07 10:01:46;;;;;;;17.13;10.57;;;;;;;2.20;84.34;100960.00;5025544;28;20165;-67
2021/01/07 10:04:13;;;;;;;16.98;10.63;;;;;;;2.14;83.96;100966.75;5026341;28;20045;-68
2021/01/07 10:06:39;;;;;;;19.20;11.35;;;;;;;2.17;84.52;100961.66;5034229;28;20440;-66
2021/01/07 10:09:05;;;;;;;19.10;11.23;;;;;;;2.23;84.62;100954.94;5029545;28;20059;-67
2021/01/07 10:11:32;;;;;;;18.10;11.30;;;;;;;2.34;84.88;100963.69;5032830;28;20108;-68
2021/01/07 10:13:58;;;;;;;19.33;11.60;;;;;;;2.39;84.36;100963.78;5029472;28;20061;-68
2021/01/07 10:16:24;;;;;;;16.75;10.55;;;;;;;2.53;84.13;100964.03;5026871;28;20061;-67
2021/01/07 10:18:50;;;;;;;20.52;11.95;;;;;;;2.52;83.29;100968.28;5028701;28;20049;-67
2021/01/07 10:21:20;;;;;;;20.17;11.43;;;;;;;2.57;83.94;100966.66;5033081;28;20052;-67
2021/01/07 10:23:47;;;;;;;20.48;11.50;;;;;;;2.64;83.60;100965.09;5026880;28;20139;-68
2021/01/07 10:26:16;;;;;;;21.63;13.63;;;;;;;2.70;82.69;100972.88;5028455;28;20058;-66
2021/01/07 10:28:45;;;;;;;19.95;11.27;;;;;;;2.71;82.90;100966.91;5032258;28;20600;-70
2021/01/07 10:31:12;;;;;;;20.77;11.68;;;;;;;2.75;83.51;100962.69;5032138;28;20124;-67
2021/01/07 10:33:39;;;;;;;22.15;13.25;;;;;;;2.70;82.88;100957.47;5033571;28;20041;-67
2021/01/07 10:36:06;;;;;;;22.55;12.25;;;;;;;2.76;83.42;100957.56;5028445;28;20084;-67
2021/01/07 10:38:32;;;;;;;21.05;12.40;;;;;;;2.87;83.46;100954.28;5026581;28;20429;-67
2021/01/07 10:41:01;;;;;;;22.40;12.55;;;;;;;2.91;82.74;100953.53;5029034;28;20094;-66
2021/01/07 10:43:29;;;;;;;23.35;12.32;;;;;;;2.86;82.88;100942.28;5026983;28;20049;-66
2021/01/07 10:45:55;;;;;;;22.25;13.13;;;;;;;2.86;82.91;100942.28;5032709;28;20412;-67
2021/01/07 10:48:24;;;;;;;21.23;12.07;;;;;;;2.95;82.92;100937.28;5033393;28;20049;-66
2021/01/07 10:50:51;;;;;;;20.95;12.05;;;;;;;2.93;82.25;100933.84;5022836;28;20056;-66
2021/01/07 10:53:46;;;;;;;21.48;12.50;;;;;;;2.87;82.14;100938.88;5024746;28;20043;-66
2021/01/07 10:56:21;;;;;;;20.40;12.02;;;;;;;2.94;82.35;100931.31;5028927;28;20046;-67
2021/01/07 10:59:02;;;;;;;21.08;12.32;;;;;;;2.99;83.07;100933.09;5029388;28;20119;-66
2021/01/07 11:01:44;;;;;;;22.85;11.70;;;;;;;3.08;81.81;100925.50;5018115;28;20104;-66
2021/01/07 11:04:44;;;;;;;20.63;11.98;;;;;;;3.08;82.27;100925.50;5035224;28;20042;-66
2021/01/07 11:07:16;;;;;;;19.25;11.35;;;;;;;3.11;82.63;100923.84;5032510;28;20746;-65
2021/01/07 11:09:48;;;;;;;19.50;12.00;;;;;;;3.07;82.44;100922.06;5025810;28;20041;-66
2021/01/07 11:12:21;;;;;;;18.35;10.95;;;;;;;3.23;81.62;100917.16;5028437;28;20068;-66
2021/01/07 11:14:50;;;;;;;19.35;11.38;;;;;;;3.09;82.42;100915.25;5030841;28;20049;-67
2021/01/07 11:17:23;;;;;;;24.70;13.27;;;;;;;3.09;82.04;100917.81;5031072;28;20140;-67
2021/01/07 11:19:50;;;;;;;18.48;11.98;;;;;;;3.02;81.39;100913.44;5025696;28;20468;-67
2021/01/07 11:22:20;;;;;;;19.67;12.40;;;;;;;2.89;82.46;100911.53;5026463;28;20060;-67
2021/01/07 11:24:48;;;;;;;19.90;12.55;;;;;;;2.81;82.77;100903.69;5029508;28;20126;-66